Time;durP1;ratioP1;P1;durP2;ratioP2;P2;SDS_P1;SDS_P2;PMS_P1;PMS_P2;Temp;Humidity;BMP_temperature;BMP_pressure;BME280_temperature;BME280_humidity;BME280_pressure;Samples;Min_cycle;Max_cycle;Signal;HPM_P1;HPM_P2
2022/04/26 03:37:29;;;;;;;;;;;11.70;99.90;;;;;;5054891;28;19916;-68
2022/04/26 03:39:55;;;;;;;;;;;11.70;99.90;;;;;;5054865;28;20003;-68
2022/04/26 03:42:20;;;;;;;;;;;11.60;99.90;;;;;;5055486;28;20392;-67
2022/04/26 03:44:46;;;;;;;;;;;11.60;99.90;;;;;;5055239;28;19931;-67
2022/04/26 03:47:11;;;;;;;;;;;11.70;99.90;;;;;;5054839;28;19931;-68
2022/04/26 03:49:37;;;;;;;;;;;11.70;99.90;;;;;;5054700;28;20306;-70
2022/04/26 03:52:03;;;;;;;;;;;11.70;99.90;;;;;;5054982;28;20022;-69
2022/04/26 03:54:28;;;;;;;;;;;11.50;99.90;;;;;;5054061;28;19963;-68
2022/04/26 03:56:53;;;;;;;;;;;11.50;99.90;;;;;;5054283;28;19908;-68
2022/04/26 03:59:19;;;;;;;;;;;11.40;99.90;;;;;;5054292;28;20405;-68
2022/04/26 04:01:46;;;;;;;;;;;11.30;99.90;;;;;;5054961;28;19950;-68
2022/04/26 04:04:11;;;;;;;;;;;11.30;99.90;;;;;;5054525;28;19909;-68
2022/04/26 04:06:36;;;;;;;;;;;11.30;99.90;;;;;;5054464;28;19916;-68
2022/04/26 04:09:03;;;;;;;;;;;11.20;99.90;;;;;;5054281;28;19913;-69
2022/04/26 04:11:28;;;;;;;;;;;11.10;99.90;;;;;;5055172;28;20023;-69
2022/04/26 04:13:53;;;;;;;;;;;11.10;99.90;;;;;;5054493;28;19956;-67
2022/04/26 04:16:19;;;;;;;;;;;11.10;99.90;;;;;;5054103;28;20381;-68
2022/04/26 04:21:28;;;;;;;;;;;11.00;99.90;;;;;;5053576;28;19916;-68
2022/04/26 04:23:54;;;;;;;;;;;11.00;99.90;;;;;;5053919;28;19909;-68
2022/04/26 04:26:19;;;;;;;;;;;11.00;99.90;;;;;;5053723;28;19967;-68
2022/04/26 04:28:45;;;;;;;;;;;11.10;99.90;;;;;;5053636;28;19963;-69
2022/04/26 04:31:10;;;;;;;;;;;11.10;99.90;;;;;;5053378;28;19909;-68
2022/04/26 04:33:36;;;;;;;;;;;10.90;99.90;;;;;;5053290;28;19909;-68
2022/04/26 04:36:02;;;;;;;;;;;10.80;99.90;;;;;;5053797;28;19908;-68
2022/04/26 04:38:27;;;;;;;;;;;10.80;99.90;;;;;;5053363;28;19917;-67
2022/04/26 04:40:53;;;;;;;;;;;10.70;99.90;;;;;;5053750;28;19939;-68
2022/04/26 04:43:19;;;;;;;;;;;10.70;99.90;;;;;;5054383;28;19924;-68
2022/04/26 04:45:44;;;;;;;;;;;10.90;99.90;;;;;;5054192;28;19916;-67
2022/04/26 04:48:09;;;;;;;;;;;11.00;99.90;;;;;;5054145;28;20269;-68
2022/04/26 04:50:35;;;;;;;;;;;11.10;99.90;;;;;;5053696;28;19951;-67
2022/04/26 04:53:01;;;;;;;;;;;11.10;99.90;;;;;;5053633;28;19909;-69
2022/04/26 04:55:26;;;;;;;;;;;11.00;99.90;;;;;;5053765;28;19909;-69
2022/04/26 04:57:51;;;;;;;;;;;10.90;99.90;;;;;;5054013;28;20011;-69
2022/04/26 05:00:17;;;;;;;;;;;10.80;99.90;;;;;;5053076;28;19915;-69
2022/04/26 05:02:43;;;;;;;;;;;10.80;99.90;;;;;;5053157;28;20282;-69
2022/04/26 05:05:08;;;;;;;;;;;10.90;99.90;;;;;;5053392;28;19916;-69
2022/04/26 05:07:33;;;;;;;;;;;10.80;99.90;;;;;;5052529;28;19968;-69
2022/04/26 05:09:59;;;;;;;;;;;10.80;99.90;;;;;;5052764;28;19917;-69
2022/04/26 05:12:24;;;;;;;;;;;10.70;99.90;;;;;;5052964;28;19909;-69
2022/04/26 05:14:50;;;;;;;;;;;10.90;99.90;;;;;;5053580;28;19916;-68
2022/04/26 05:17:15;;;;;;;;;;;10.70;99.90;;;;;;5053623;28;19909;-69
2022/04/26 05:19:40;;;;;;;;;;;10.60;99.90;;;;;;5032928;28;20016;-69
2022/04/26 05:22:09;;;;;;;;;;;10.70;99.90;;;;;;5039788;28;20021;-69
2022/04/26 05:24:53;;;;;;;;;;;10.70;99.90;;;;;;5049868;28;19932;-68
2022/04/26 05:27:25;;;;;;;;;;;10.70;99.90;;;;;;5046689;28;19913;-69
2022/04/26 05:29:51;;;;;;;;;;;10.70;99.90;;;;;;5042968;28;19916;-66
2022/04/26 05:32:27;;;;;;;;;;;10.70;99.90;;;;;;5039406;28;20003;-69
2022/04/26 05:35:00;;;;;;;;;;;10.70;99.90;;;;;;5049921;28;20006;-68
2022/04/26 05:37:26;;;;;;;;;;;10.90;99.90;;;;;;5051388;28;20320;-69
2022/04/26 05:39:52;;;;;;;;;;;11.00;99.90;;;;;;5050828;28;19920;-68
2022/04/26 05:42:17;;;;;;;;;;;10.90;99.90;;;;;;5060424;28;19935;-67
2022/04/26 05:44:43;;;;;;;;;;;11.00;99.90;;;;;;5074497;28;19910;-67
2022/04/26 05:47:08;;;;;;;;;;;11.00;99.90;;;;;;5074592;28;19944;-66
2022/04/26 05:49:34;;;;;;;;;;;11.00;99.90;;;;;;5074712;28;20011;-66
2022/04/26 05:52:00;;;;;;;;;;;10.60;99.90;;;;;;5064747;28;19917;-69
2022/04/26 05:54:26;;;;;;;;;;;10.60;99.90;;;;;;5050429;28;20269;-68
2022/04/26 05:56:53;;;;;;;;;;;10.60;99.90;;;;;;5050379;28;19916;-68
2022/04/26 05:59:19;;;;;;;;;;;10.60;99.90;;;;;;5049281;28;20414;-68
2022/04/26 06:01:45;;;;;;;;;;;10.40;99.90;;;;;;5049964;28;20385;-68
2022/04/26 06:04:10;;;;;;;;;;;10.00;99.90;;;;;;5049795;28;19909;-68
2022/04/26 06:06:36;;;;;;;;;;;9.80;99.90;;;;;;5051354;28;19908;-68
2022/04/26 06:09:02;;;;;;;;;;;9.80;99.90;;;;;;5051338;28;20285;-68
2022/04/26 06:11:27;;;;;;;;;;;10.00;99.90;;;;;;5052469;28;19998;-69
2022/04/26 06:13:53;;;;;;;;;;;10.10;99.90;;;;;;5051759;28;19913;-67
2022/04/26 06:16:18;;;;;;;;;;;10.00;99.90;;;;;;5051479;28;19947;-68
2022/04/26 06:18:43;;;;;;;;;;;9.80;99.90;;;;;;5052743;28;19909;-69
2022/04/26 06:21:09;;;;;;;;;;;9.70;99.90;;;;;;5055115;28;20015;-67
2022/04/26 06:23:34;;;;;;;;;;;9.80;99.90;;;;;;5056545;28;20000;-68
2022/04/26 06:26:01;;;;;;;;;;;9.90;99.90;;;;;;5055678;28;19916;-68
2022/04/26 06:28:27;;;;;;;;;;;9.90;99.90;;;;;;5055297;28;20293;-69
2022/04/26 06:30:54;;;;;;;;;;;10.00;99.90;;;;;;5054920;28;19913;-68
2022/04/26 06:33:19;;;;;;;;;;;10.10;99.90;;;;;;5055529;28;19913;-69
2022/04/26 06:35:45;;;;;;;;;;;9.80;99.90;;;;;;5055403;28;20404;-68
2022/04/26 06:38:10;;;;;;;;;;;9.80;99.90;;;;;;5070336;23;20394;-71
2022/04/26 06:40:36;;;;;;;;;;;9.70;99.90;;;;;;5033991;28;19917;-71
2022/04/26 06:43:01;;;;;;;;;;;9.50;99.90;;;;;;5034679;28;20004;-71
2022/04/26 06:45:27;;;;;;;;;;;9.50;99.90;;;;;;5034535;28;20370;-71
2022/04/26 06:47:54;;;;;;;;;;;9.60;99.90;;;;;;5034365;28;19952;-71
2022/04/26 06:50:20;;;;;;;;;;;9.40;99.90;;;;;;5034190;28;19961;-71
2022/04/26 06:52:46;;;;;;;;;;;9.30;99.90;;;;;;5034694;28;19978;-71
2022/04/26 06:55:11;;;;;;;;;;;9.30;99.90;;;;;;5033488;28;19967;-71
2022/04/26 06:57:37;;;;;;;;;;;9.40;99.90;;;;;;5034592;28;19910;-71
2022/04/26 07:00:07;;;;;;;;;;;9.50;99.90;;;;;;5034132;28;19920;-71
2022/04/26 07:02:33;;;;;;;;;;;9.50;99.90;;;;;;5034552;28;19944;-71
2022/04/26 07:04:58;;;;;;;;;;;9.60;99.90;;;;;;5034468;28;19929;-71
2022/04/26 07:07:24;;;;;;;;;;;9.60;99.90;;;;;;5034561;28;20279;-72
2022/04/26 07:09:49;;;;;;;;;;;9.80;99.90;;;;;;5034102;28;20008;-72
2022/04/26 07:12:15;;;;;;;;;;;10.00;99.90;;;;;;5034954;28;20438;-71
2022/04/26 07:14:40;;;;;;;;;;;10.20;99.90;;;;;;5034251;28;19917;-71
2022/04/26 07:17:06;;;;;;;;;;;10.10;99.90;;;;;;5034366;28;19932;-72
2022/04/26 07:19:35;;;;;;;;;;;10.10;99.90;;;;;;5033855;28;19912;-72
2022/04/26 07:22:03;;;;;;;;;;;10.30;99.90;;;;;;5034318;28;20039;-72
2022/04/26 07:24:32;;;;;;;;;;;10.60;99.90;;;;;;5034088;28;19917;-71
2022/04/26 07:26:57;;;;;;;;;;;10.60;99.90;;;;;;5034259;28;19909;-72
2022/04/26 07:29:23;;;;;;;;;;;10.30;99.90;;;;;;5033342;28;20290;-71
2022/04/26 07:31:48;;;;;;;;;;;10.30;99.90;;;;;;5033933;28;19941;-71
2022/04/26 07:34:24;;;;;;;;;;;10.20;99.90;;;;;;5033756;28;19982;-71
2022/04/26 07:36:50;;;;;;;;;;;10.20;99.90;;;;;;5033411;28;19916;-72
2022/04/26 07:39:17;;;;;;;;;;;10.20;99.90;;;;;;5033937;28;19917;-71
2022/04/26 07:41:47;;;;;;;;;;;10.30;99.90;;;;;;5034084;28;20345;-70
2022/04/26 07:44:12;;;;;;;;;;;10.10;99.90;;;;;;5033815;28;20333;-71
2022/04/26 07:46:38;;;;;;;;;;;9.90;99.90;;;;;;5033710;28;19936;-71
2022/04/26 07:49:07;;;;;;;;;;;10.00;99.90;;;;;;5033586;28;20374;-71
2022/04/26 07:51:32;;;;;;;;;;;9.90;99.90;;;;;;5033814;28;20351;-71
2022/04/26 07:54:01;;;;;;;;;;;10.00;99.90;;;;;;5033822;28;19944;-72
2022/04/26 07:56:31;;;;;;;;;;;9.90;99.90;;;;;;5033593;28;20308;-72
2022/04/26 07:58:58;;;;;;;;;;;10.00;99.90;;;;;;5033244;28;19909;-72
2022/04/26 08:01:24;;;;;;;;;;;10.30;99.90;;;;;;5031748;28;19910;-72
2022/04/26 08:03:50;;;;;;;;;;;10.40;99.90;;;;;;5033594;28;19910;-71
2022/04/26 08:06:16;;;;;;;;;;;10.40;99.90;;;;;;5033706;28;20393;-72
2022/04/26 08:08:41;;;;;;;;;;;10.50;99.90;;;;;;5033523;28;19916;-71
2022/04/26 08:11:11;;;;;;;;;;;10.60;99.90;;;;;;5033063;28;19920;-71
2022/04/26 08:13:37;;;;;;;;;;;10.50;99.90;;;;;;5033240;28;19947;-71
2022/04/26 08:16:03;;;;;;;;;;;10.30;99.90;;;;;;5033207;28;19962;-71
2022/04/26 08:18:28;;;;;;;;;;;10.20;99.90;;;;;;5033279;28;19920;-72
2022/04/26 08:20:54;;;;;;;;;;;10.00;99.90;;;;;;5032899;28;19909;-71
2022/04/26 08:23:19;;;;;;;;;;;10.10;99.90;;;;;;5033120;28;20301;-71
2022/04/26 08:28:28;;;;;;;;;;;9.70;99.90;;;;;;5032937;28;19956;-71
2022/04/26 08:30:55;;;;;;;;;;;9.60;99.90;;;;;;5033330;28;20365;-71
2022/04/26 08:33:21;;;;;;;;;;;9.70;99.90;;;;;;5031805;28;19932;-71
2022/04/26 08:35:46;;;;;;;;;;;10.00;99.90;;;;;;5032864;28;19909;-71
2022/04/26 08:38:12;;;;;;;;;;;10.40;99.90;;;;;;5032606;28;19914;-71
2022/04/26 08:40:37;;;;;;;;;;;10.40;99.90;;;;;;5032145;28;19909;-71
2022/04/26 08:43:03;;;;;;;;;;;10.40;99.90;;;;;;5032918;28;19909;-71
2022/04/26 08:45:29;;;;;;;;;;;10.80;99.90;;;;;;5033118;28;20002;-72
2022/04/26 08:53:23;;;;;;;;;;;11.20;99.90;;;;;;5032494;28;19958;-72
2022/04/26 08:55:50;;;;;;;;;;;11.00;99.90;;;;;;5032489;28;20005;-72
2022/04/26 08:58:16;;;;;;;;;;;10.80;99.90;;;;;;5032535;28;19909;-71
2022/04/26 09:01:01;;;;;;;;;;;10.70;99.90;;;;;;5032177;28;19916;-71
2022/04/26 09:03:29;;;;;;;;;;;10.70;99.90;;;;;;5032253;28;19956;-71
2022/04/26 09:06:13;;;;;;;;;;;10.90;99.90;;;;;;5032286;28;19913;-71
2022/04/26 09:08:42;;;;;;;;;;;11.20;99.90;;;;;;5032424;28;19909;-71
2022/04/26 09:11:20;;;;;;;;;;;11.40;99.90;;;;;;5031585;28;20465;-71
2022/04/26 09:13:46;;;;;;;;;;;11.50;99.90;;;;;;5031952;28;19914;-71
2022/04/26 09:16:15;;;;;;;;;;;11.50;99.90;;;;;;5030630;28;20308;-70
2022/04/26 09:18:48;;;;;;;;;;;11.40;99.90;;;;;;5031883;28;19980;-71
2022/04/26 09:21:14;;;;;;;;;;;11.40;99.90;;;;;;5031867;28;19973;-70
2022/04/26 09:23:40;;;;;;;;;;;11.60;99.90;;;;;;5032049;28;19909;-70
2022/04/26 09:26:09;;;;;;;;;;;11.60;99.90;;;;;;5031940;28;19940;-70
2022/04/26 09:28:42;;;;;;;;;;;11.80;99.90;;;;;;5031885;28;19917;-71
2022/04/26 09:31:26;;;;;;;;;;;11.80;99.90;;;;;;5031681;28;19913;-71
2022/04/26 09:33:52;;;;;;;;;;;11.80;99.90;;;;;;5034827;28;19909;-71
2022/04/26 09:36:21;;;;;;;;;;;11.90;99.90;;;;;;5039336;28;19909;-71
2022/04/26 09:38:50;;;;;;;;;;;12.10;99.90;;;;;;5039579;28;19944;-71
2022/04/26 09:41:15;;;;;;;;;;;12.20;99.90;;;;;;5040415;28;19920;-70
2022/04/26 09:43:41;;;;;;;;;;;12.30;99.90;;;;;;5043587;28;19969;-71
2022/04/26 09:46:08;;;;;;;;;;;12.30;99.90;;;;;;5045133;28;19920;-71
2022/04/26 09:48:36;;;;;;;;;;;12.20;99.90;;;;;;5041220;28;19913;-70
2022/04/26 09:51:03;;;;;;;;;;;12.10;99.90;;;;;;5034319;28;20519;-72
2022/04/26 09:53:32;;;;;;;;;;;12.20;99.90;;;;;;5037908;28;20318;-71
2022/04/26 09:56:02;;;;;;;;;;;12.30;99.90;;;;;;5036231;28;19909;-71
2022/04/26 09:58:28;;;;;;;;;;;12.10;99.90;;;;;;5035772;28;20366;-71
2022/04/26 10:00:59;;;;;;;;;;;12.00;99.90;;;;;;5035668;28;20275;-72
2022/04/26 10:03:29;;;;;;;;;;;12.00;99.90;;;;;;5035769;28;19956;-71
2022/04/26 10:05:58;;;;;;;;;;;12.00;99.90;;;;;;5035771;28;19978;-72
2022/04/26 10:08:25;;;;;;;;;;;12.30;99.90;;;;;;5035610;28;19917;-71
2022/04/26 10:10:50;;;;;;;;;;;12.10;99.90;;;;;;5035632;28;19921;-72
2022/04/26 10:13:32;;;;;;;;;;;12.10;99.90;;;;;;5035572;28;19909;-72
2022/04/26 10:16:05;;;;;;;;;;;12.30;99.90;;;;;;5035531;28;19916;-72
2022/04/26 10:18:38;;;;;;;;;;;12.50;99.90;;;;;;5035871;28;19909;-72
2022/04/26 10:21:04;;;;;;;;;;;12.80;99.90;;;;;;5035516;28;20413;-72
2022/04/26 10:23:48;;;;;;;;;;;13.10;99.90;;;;;;5035693;28;19917;-72
2022/04/26 10:26:14;;;;;;;;;;;13.20;99.90;;;;;;5034075;28;19909;-72
2022/04/26 10:28:51;;;;;;;;;;;13.40;99.90;;;;;;5035375;28;19978;-72
2022/04/26 10:31:22;;;;;;;;;;;13.50;99.90;;;;;;5035135;28;19996;-72
2022/04/26 10:33:47;;;;;;;;;;;13.60;99.90;;;;;;5035139;28;19943;-72
2022/04/26 10:36:27;;;;;;;;;;;13.60;99.90;;;;;;5034505;28;19913;-72
2022/04/26 10:39:05;;;;;;;;;;;13.50;99.90;;;;;;5034925;28;20484;-72
2022/04/26 10:41:35;;;;;;;;;;;13.50;99.90;;;;;;5035780;28;19971;-72
2022/04/26 10:44:13;;;;;;;;;;;13.50;99.90;;;;;;5036208;28;19921;-71
2022/04/26 10:46:38;;;;;;;;;;;13.70;99.90;;;;;;5035712;28;19909;-71
2022/04/26 10:49:27;;;;;;;;;;;13.80;99.90;;;;;;5038579;28;20453;-72
2022/04/26 10:51:55;;;;;;;;;;;14.00;99.90;;;;;;5032872;28;20030;-72
2022/04/26 10:54:39;;;;;;;;;;;14.40;99.90;;;;;;5034737;28;20287;-72
2022/04/26 10:57:04;;;;;;;;;;;14.80;99.90;;;;;;5035007;28;19920;-73
2022/04/26 10:59:30;;;;;;;;;;;15.10;99.90;;;;;;5035308;28;20429;-72
2022/04/26 11:01:55;;;;;;;;;;;14.50;99.90;;;;;;5034861;28;20367;-72
2022/04/26 11:04:20;;;;;;;;;;;14.40;99.90;;;;;;5033919;28;19956;-74
2022/04/26 11:06:47;;;;;;;;;;;14.30;99.90;;;;;;5034506;28;19909;-72
2022/04/26 11:09:14;;;;;;;;;;;14.30;99.90;;;;;;5034102;28;19921;-72
2022/04/26 11:11:46;;;;;;;;;;;14.20;99.90;;;;;;5034574;28;19913;-72
2022/04/26 11:14:11;;;;;;;;;;;14.20;99.90;;;;;;5034388;28;19909;-72
2022/04/26 11:16:37;;;;;;;;;;;14.50;99.90;;;;;;5034502;28;20370;-71
2022/04/26 11:19:02;;;;;;;;;;;14.60;99.90;;;;;;5034301;28;20390;-71
2022/04/26 11:21:28;;;;;;;;;;;14.50;99.90;;;;;;5032857;28;19909;-70
2022/04/26 11:29:34;;;;;;;;;;;14.30;99.90;;;;;;5034119;28;20396;-71
2022/04/26 11:32:00;;;;;;;;;;;14.60;99.90;;;;;;5034199;28;20366;-71
2022/04/26 11:34:41;;;;;;;;;;;14.60;99.90;;;;;;5034425;28;19909;-73
2022/04/26 11:37:07;;;;;;;;;;;14.60;99.90;;;;;;5034424;28;20377;-71
2022/04/26 11:39:38;;;;;;;;;;;14.90;99.90;;;;;;5033665;28;19917;-72
2022/04/26 11:42:04;;;;;;;;;;;15.00;99.90;;;;;;5034387;28;19921;-72
2022/04/26 11:44:30;;;;;;;;;;;15.00;99.90;;;;;;5034266;28;19909;-72
2022/04/26 11:46:59;;;;;;;;;;;15.00;99.90;;;;;;5033992;28;19963;-71
2022/04/26 11:49:37;;;;;;;;;;;15.00;99.90;;;;;;5033718;28;20394;-71
2022/04/26 11:52:03;;;;;;;;;;;15.00;99.90;;;;;;5034103;28;20267;-71
2022/04/26 11:54:36;;;;;;;;;;;15.00;99.90;;;;;;5034085;28;20016;-71
2022/04/26 11:57:02;;;;;;;;;;;15.00;99.90;;;;;;5033988;28;20309;-71
2022/04/26 11:59:27;;;;;;;;;;;15.10;99.90;;;;;;5033770;28;20417;-71
2022/04/26 12:01:53;;;;;;;;;;;14.80;99.90;;;;;;5033955;28;19909;-71
2022/04/26 12:04:19;;;;;;;;;;;14.80;99.90;;;;;;5034079;28;19909;-71
2022/04/26 12:06:44;;;;;;;;;;;15.00;99.90;;;;;;5034497;28;20007;-71
2022/04/26 12:09:12;;;;;;;;;;;15.00;99.90;;;;;;5033744;28;19955;-71
2022/04/26 12:11:38;;;;;;;;;;;15.00;99.90;;;;;;5034049;28;19953;-72
2022/04/26 12:14:08;;;;;;;;;;;15.00;99.90;;;;;;5033323;28;20362;-71
2022/04/26 12:16:39;;;;;;;;;;;15.10;99.90;;;;;;5032989;28;20281;-71
2022/04/26 12:19:05;;;;;;;;;;;15.20;99.90;;;;;;5033083;28;19915;-71
2022/04/26 12:21:47;;;;;;;;;;;15.30;99.90;;;;;;5033317;28;20370;-72
2022/04/26 12:24:13;;;;;;;;;;;15.40;99.90;;;;;;5033320;28;19920;-72
2022/04/26 12:26:54;;;;;;;;;;;15.50;99.20;;;;;;5033116;28;19913;-72
2022/04/26 12:29:20;;;;;;;;;;;15.30;97.10;;;;;;5033293;28;20505;-72
2022/04/26 12:31:49;;;;;;;;;;;15.20;97.50;;;;;;5033203;28;19916;-72
2022/04/26 12:34:21;;;;;;;;;;;15.20;97.50;;;;;;5033030;28;19909;-72
2022/04/26 12:36:55;;;;;;;;;;;15.10;96.80;;;;;;5032564;28;19909;-71
2022/04/26 12:39:21;;;;;;;;;;;15.00;96.60;;;;;;5055028;22;20374;-68
2022/04/26 12:41:51;;;;;;;;;;;15.20;96.80;;;;;;5033072;28;20325;-68
2022/04/26 12:44:17;;;;;;;;;;;15.20;96.90;;;;;;5033145;28;19909;-68
2022/04/26 12:52:31;;;;;;;;;;;15.70;96.40;;;;;;5033208;28;20016;-68
2022/04/26 12:54:56;;;;;;;;;;;15.70;96.30;;;;;;5033150;28;19916;-68
2022/04/26 12:57:22;;;;;;;;;;;15.60;98.70;;;;;;5033144;28;19909;-68
2022/04/26 12:59:47;;;;;;;;;;;15.30;99.90;;;;;;5032653;28;20002;-69
2022/04/26 13:02:13;;;;;;;;;;;15.20;99.90;;;;;;5032875;28;19916;-69
2022/04/26 13:04:38;;;;;;;;;;;15.20;99.90;;;;;;5033333;28;19909;-68
2022/04/26 13:07:03;;;;;;;;;;;15.00;99.90;;;;;;5032962;28;19913;-69
2022/04/26 13:09:29;;;;;;;;;;;14.90;99.90;;;;;;5032770;28;19966;-69
2022/04/26 13:11:54;;;;;;;;;;;15.00;99.90;;;;;;5033088;28;20059;-69
2022/04/26 13:14:20;;;;;;;;;;;15.00;99.90;;;;;;5032969;28;19988;-69
2022/04/26 13:16:45;;;;;;;;;;;15.00;99.90;;;;;;5032829;28;19909;-67
2022/04/26 13:19:10;;;;;;;;;;;14.90;99.90;;;;;;5032170;28;20027;-68
2022/04/26 13:21:37;;;;;;;;;;;14.90;99.90;;;;;;5032314;28;20000;-67
2022/04/26 13:24:03;;;;;;;;;;;15.00;99.90;;;;;;5032388;28;20036;-68
2022/04/26 13:26:30;;;;;;;;;;;14.90;99.90;;;;;;5032242;28;19936;-68
2022/04/26 13:28:55;;;;;;;;;;;14.90;99.90;;;;;;5030916;28;19920;-68
2022/04/26 13:31:21;;;;;;;;;;;15.20;99.90;;;;;;5032219;28;19913;-69
2022/04/26 13:33:47;;;;;;;;;;;15.60;99.90;;;;;;5032424;28;19932;-68
2022/04/26 13:36:13;;;;;;;;;;;15.90;99.90;;;;;;5031764;28;20380;-68
2022/04/26 13:38:38;;;;;;;;;;;16.10;99.90;;;;;;5032179;28;19914;-67
2022/04/26 13:41:04;;;;;;;;;;;16.10;97.80;;;;;;5031893;28;19921;-68
2022/04/26 13:43:29;;;;;;;;;;;16.20;97.20;;;;;;5032109;28;20362;-68
2022/04/26 13:45:55;;;;;;;;;;;16.20;96.40;;;;;;5031951;28;19935;-66
2022/04/26 13:48:20;;;;;;;;;;;16.10;96.40;;;;;;5032343;28;20321;-68
2022/04/26 13:50:46;;;;;;;;;;;16.00;96.10;;;;;;5031655;28;19913;-67
2022/04/26 13:53:11;;;;;;;;;;;15.40;97.00;;;;;;5032014;28;20440;-68
2022/04/26 13:55:37;;;;;;;;;;;15.10;99.90;;;;;;5031955;28;19963;-67
2022/04/26 13:58:05;;;;;;;;;;;15.00;99.90;;;;;;5032118;28;19956;-68
2022/04/26 14:00:34;;;;;;;;;;;14.70;99.90;;;;;;5031547;28;20451;-68
2022/04/26 14:02:59;;;;;;;;;;;14.20;99.90;;;;;;5031715;28;20362;-67
2022/04/26 14:05:27;;;;;;;;;;;14.10;99.90;;;;;;5031760;28;19992;-67
2022/04/26 14:07:52;;;;;;;;;;;14.10;99.90;;;;;;5031948;28;20011;-68
2022/04/26 14:10:18;;;;;;;;;;;14.10;99.90;;;;;;5031896;28;20419;-68
2022/04/26 14:12:43;;;;;;;;;;;14.20;99.90;;;;;;5032443;28;19919;-67
2022/04/26 14:23:25;;;;;;;;;;;14.40;99.90;;;;;;5032423;28;20436;-69
2022/04/26 14:25:50;;;;;;;;;;;14.50;99.90;;;;;;5031688;28;19909;-69
2022/04/26 14:28:16;;;;;;;;;;;14.40;99.90;;;;;;5031566;28;19909;-68
2022/04/26 14:30:41;;;;;;;;;;;14.20;99.90;;;;;;5031293;28;19913;-69
2022/04/26 14:33:07;;;;;;;;;;;14.10;99.90;;;;;;5031622;28;20397;-68
2022/04/26 14:35:32;;;;;;;;;;;14.20;99.90;;;;;;5031529;28;19909;-68
2022/04/26 14:37:58;;;;;;;;;;;14.10;99.90;;;;;;5030801;28;19916;-67
2022/04/26 14:40:24;;;;;;;;;;;14.10;99.90;;;;;;5033932;28;19952;-67
2022/04/26 14:42:50;;;;;;;;;;;14.20;99.90;;;;;;5035272;28;19909;-69
2022/04/26 14:45:16;;;;;;;;;;;14.20;99.90;;;;;;5034987;28;19909;-68
2022/04/26 14:47:42;;;;;;;;;;;14.30;99.90;;;;;;5035072;28;20329;-68
2022/04/26 14:50:09;;;;;;;;;;;14.40;99.90;;;;;;5034523;28;20431;-67
2022/04/26 14:52:36;;;;;;;;;;;14.50;99.90;;;;;;5035023;28;19913;-67
2022/04/26 14:55:04;;;;;;;;;;;14.70;99.90;;;;;;5034853;28;20358;-70
2022/04/26 14:57:29;;;;;;;;;;;14.90;99.90;;;;;;5034979;28;19909;-68
2022/04/26 14:59:55;;;;;;;;;;;15.00;99.90;;;;;;5034727;28;19921;-68
2022/04/26 15:02:21;;;;;;;;;;;14.90;99.90;;;;;;5034851;28;19909;-69
2022/04/26 15:04:47;;;;;;;;;;;15.00;99.90;;;;;;5034877;28;20282;-70
2022/04/26 15:07:12;;;;;;;;;;;15.10;99.90;;;;;;5035087;28;19916;-69
2022/04/26 15:09:44;;;;;;;;;;;15.00;99.90;;;;;;5034279;28;19918;-67
2022/04/26 15:17:44;;;;;;;;;;;14.90;99.90;;;;;;5034588;28;19916;-68
2022/04/26 15:20:10;;;;;;;;;;;14.80;99.90;;;;;;5034461;28;19913;-67
2022/04/26 15:22:37;;;;;;;;;;;14.90;99.90;;;;;;5034660;28;19913;-69
2022/04/26 15:25:05;;;;;;;;;;;14.90;99.90;;;;;;5034758;28;20437;-67
2022/04/26 15:27:30;;;;;;;;;;;14.90;99.90;;;;;;5033243;28;20374;-68
2022/04/26 15:29:56;;;;;;;;;;;15.10;99.90;;;;;;5034472;28;19919;-68
2022/04/26 15:32:23;;;;;;;;;;;15.30;99.90;;;;;;5034516;28;19959;-68
2022/04/26 15:34:49;;;;;;;;;;;15.40;99.90;;;;;;5035320;28;19959;-67
2022/04/26 15:37:14;;;;;;;;;;;15.50;99.90;;;;;;5034306;28;20317;-67
2022/04/26 15:39:42;;;;;;;;;;;15.60;99.90;;;;;;5034226;28;19924;-68
2022/04/26 15:42:08;;;;;;;;;;;15.70;99.90;;;;;;5034413;28;19917;-67
2022/04/26 15:44:33;;;;;;;;;;;15.80;99.90;;;;;;5034177;28;19980;-69
2022/04/26 15:46:59;;;;;;;;;;;15.90;99.90;;;;;;5034043;28;20289;-67
2022/04/26 15:49:25;;;;;;;;;;;16.00;99.90;;;;;;5033666;28;19924;-68
2022/04/26 15:51:52;;;;;;;;;;;15.80;99.90;;;;;;5032777;28;20293;-68
2022/04/26 15:54:17;;;;;;;;;;;15.90;99.90;;;;;;5034181;28;19909;-70
2022/04/26 15:56:43;;;;;;;;;;;15.80;99.90;;;;;;5034017;28;19909;-68
2022/04/26 15:59:09;;;;;;;;;;;15.60;99.90;;;;;;5033410;28;20042;-67
2022/04/26 16:01:36;;;;;;;;;;;15.50;99.90;;;;;;5033914;28;19913;-66
2022/04/26 16:04:01;;;;;;;;;;;15.40;99.90;;;;;;5033758;28;19909;-70
2022/04/26 16:06:27;;;;;;;;;;;15.20;99.90;;;;;;5033497;28;20285;-70
2022/04/26 16:20:28;;;;;;;;;;;15.10;99.90;;;;;;5033622;28;19909;-68
2022/04/26 16:22:35;;;;;;;;;;;14.00;99.90;;;;;;5033217;28;19932;-68
2022/04/26 16:25:00;;;;;;;;;;;14.10;99.90;;;;;;5033166;28;20294;-68
2022/04/26 16:27:27;;;;;;;;;;;14.20;99.90;;;;;;5033078;28;20446;-67
2022/04/26 16:29:52;;;;;;;;;;;14.20;99.90;;;;;;5032602;28;19913;-67
2022/04/26 16:32:18;;;;;;;;;;;14.30;99.90;;;;;;5032992;28;19916;-68
2022/04/26 16:34:44;;;;;;;;;;;14.40;99.90;;;;;;5032956;28;19915;-68
2022/04/26 16:37:09;;;;;;;;;;;14.20;99.90;;;;;;5032570;28;20362;-69
2022/04/26 16:39:34;;;;;;;;;;;14.00;99.90;;;;;;5032337;28;19956;-68
2022/04/26 16:42:00;;;;;;;;;;;14.00;99.90;;;;;;5030696;28;20264;-68
2022/04/26 16:44:25;;;;;;;;;;;14.10;99.90;;;;;;5031744;28;20405;-68
2022/04/26 16:46:51;;;;;;;;;;;14.20;99.90;;;;;;5032044;28;20369;-67
2022/04/26 16:49:16;;;;;;;;;;;14.20;99.90;;;;;;5031465;28;20368;-69
2022/04/26 16:51:41;;;;;;;;;;;14.10;99.90;;;;;;5032054;28;20389;-68
2022/04/26 16:54:07;;;;;;;;;;;14.20;99.90;;;;;;5032334;28;19909;-67
2022/04/26 16:56:33;;;;;;;;;;;14.20;99.90;;;;;;5031282;28;20370;-67
2022/04/26 16:58:58;;;;;;;;;;;14.10;99.90;;;;;;5025676;28;19917;-68
2022/04/26 17:01:23;;;;;;;;;;;14.00;99.90;;;;;;5030215;28;19924;-67
2022/04/26 17:03:49;;;;;;;;;;;13.90;99.90;;;;;;5029690;28;19936;-67
2022/04/26 17:06:15;;;;;;;;;;;13.50;99.90;;;;;;5031243;28;20346;-69
2022/04/26 17:08:41;;;;;;;;;;;13.30;99.90;;;;;;5029566;28;20286;-67
2022/04/26 17:13:51;;;;;;;;;;;13.30;99.90;;;;;;5030094;28;19978;-69
2022/04/26 17:16:16;;;;;;;;;;;13.50;99.90;;;;;;5031508;28;19905;-68
2022/04/26 17:18:42;;;;;;;;;;;13.60;99.90;;;;;;5029450;28;20267;-67
2022/04/26 17:21:08;;;;;;;;;;;13.70;99.90;;;;;;5031210;28;19928;-67
2022/04/26 17:23:33;;;;;;;;;;;13.80;99.90;;;;;;5031643;28;19993;-68
2022/04/26 17:25:59;;;;;;;;;;;13.80;99.90;;;;;;5031015;28;19917;-67
2022/04/26 17:28:24;;;;;;;;;;;13.90;99.90;;;;;;5030151;28;19917;-68
2022/04/26 17:30:50;;;;;;;;;;;13.90;99.90;;;;;;5029145;28;19917;-68
2022/04/26 17:33:15;;;;;;;;;;;13.90;99.90;;;;;;5030964;28;20341;-69
2022/04/26 17:35:41;;;;;;;;;;;13.80;99.90;;;;;;5030976;28;19913;-68
2022/04/26 17:38:07;;;;;;;;;;;13.80;99.90;;;;;;5030776;28;19920;-68
2022/04/26 17:40:32;;;;;;;;;;;13.70;99.90;;;;;;5030691;28;19963;-67
2022/04/26 17:42:58;;;;;;;;;;;13.70;99.90;;;;;;5029936;28;20015;-69
2022/04/26 17:45:23;;;;;;;;;;;13.70;99.90;;;;;;5030953;28;19916;-68
2022/04/26 17:47:48;;;;;;;;;;;13.70;99.90;;;;;;5031767;28;19909;-68
2022/04/26 17:50:14;;;;;;;;;;;13.70;99.90;;;;;;5030982;28;19917;-69
2022/04/26 17:58:09;;;;;;;;;;;13.60;99.90;;;;;;5030521;28;19971;-68
2022/04/26 18:00:34;;;;;;;;;;;13.60;99.90;;;;;;5030528;28;19910;-67
2022/04/26 18:03:00;;;;;;;;;;;13.70;99.90;;;;;;5030815;28;19932;-68
2022/04/26 18:05:25;;;;;;;;;;;13.70;99.90;;;;;;5031141;28;19916;-68
2022/04/26 18:07:51;;;;;;;;;;;13.70;99.90;;;;;;5030617;28;19909;-69
2022/04/26 18:10:17;;;;;;;;;;;13.70;99.90;;;;;;5030428;28;19971;-69
2022/04/26 18:12:44;;;;;;;;;;;13.60;99.90;;;;;;5030132;28;20532;-67
2022/04/26 18:15:09;;;;;;;;;;;13.60;99.90;;;;;;5033403;28;19936;-68
2022/04/26 18:17:35;;;;;;;;;;;13.50;99.90;;;;;;5035047;28;20576;-67
2022/04/26 18:20:00;;;;;;;;;;;13.50;99.90;;;;;;5034130;28;19924;-67
2022/04/26 18:22:26;;;;;;;;;;;13.40;99.90;;;;;;5035157;28;19920;-66
2022/04/26 18:24:51;;;;;;;;;;;13.30;99.90;;;;;;5035055;28;19909;-68
2022/04/26 18:27:17;;;;;;;;;;;13.40;99.90;;;;;;5035221;28;20289;-68
2022/04/26 18:29:43;;;;;;;;;;;13.50;99.90;;;;;;5035024;28;19913;-68
2022/04/26 18:32:09;;;;;;;;;;;13.50;99.90;;;;;;5035555;28;20286;-66
2022/04/26 18:34:34;;;;;;;;;;;13.40;99.90;;;;;;5035412;28;19971;-67
2022/04/26 18:37:00;;;;;;;;;;;13.50;99.90;;;;;;5033186;28;19917;-67
2022/04/26 18:39:26;;;;;;;;;;;13.40;99.90;;;;;;5033581;28;20577;-68
2022/04/26 18:41:56;;;;;;;;;;;13.40;99.90;;;;;;5034436;28;19932;-68
2022/04/26 18:44:23;;;;;;;;;;;13.40;99.90;;;;;;5034490;28;19909;-68
2022/04/26 18:46:49;;;;;;;;;;;13.20;99.90;;;;;;5034402;28;19931;-68
2022/04/26 18:49:16;;;;;;;;;;;13.30;99.90;;;;;;5034047;28;19936;-68